Stellarton, Canada
Current Conditions -  °F | °C
As of 4:00 AM on Tuesday 21 Oct 2014 (Local Time) from CYYG Reporting Station
Clear Clear  
Wind Chill: 33°   Ceiling: Unl
Heat Index: 37°   Visibility: 15mi
Dew Point: 32°   Wind: 6mph
Humidity: 81%   Direction: 230°SW
Pressure: 29.97"   Gusts: NA
Location:  45.57°N, 62.65°W
Report Text: CYYG 210700Z 23005KT 15SM SKC 03/00 A2997 RMK SLP150
Loading
Personal Weather Stations






























Interactive Weather Map
Tropical Storm Tracking
New forecast layout! Learn more

10-Day Weather Forecast

Advertisements
Track Severe Weather on mobile